Time;durP1;ratioP1;P1;durP2;ratioP2;P2;SDS_P1;SDS_P2;PMS_P1;PMS_P2;Temp;Humidity;BMP_temperature;BMP_pressure;BME280_temperature;BME280_humidity;BME280_pressure;Samples;Min_cycle;Max_cycle;Signal;HPM_P1;HPM_P2
2022/02/14 00:02:17;;;;;;;0.60;0.52;;;9.60;99.90;;;;;;4995793;28;20270;-79
2022/02/14 00:04:44;;;;;;;0.50;0.40;;;9.50;99.90;;;;;;4995473;28;20200;-78
2022/02/14 00:07:12;;;;;;;0.50;0.40;;;9.60;99.90;;;;;;4995946;28;20269;-77
2022/02/14 00:09:39;;;;;;;3.10;1.05;;;9.60;99.90;;;;;;4995367;28;20196;-78
2022/02/14 00:12:06;;;;;;;4.57;0.70;;;9.50;99.90;;;;;;4994991;28;20212;-78
2022/02/14 00:14:33;;;;;;;1.60;0.98;;;9.50;99.90;;;;;;4995288;28;20210;-78
2022/02/14 00:17:00;;;;;;;3.13;0.93;;;9.50;99.90;;;;;;4995183;28;20201;-74
2022/02/14 00:19:26;;;;;;;2.05;1.67;;;9.50;99.90;;;;;;4994562;28;20284;-78
2022/02/14 00:21:53;;;;;;;0.50;0.50;;;9.50;99.90;;;;;;4994822;28;20232;-74
2022/02/14 00:24:21;;;;;;;0.82;0.70;;;9.50;99.90;;;;;;4995089;28;20196;-78
2022/02/14 00:26:53;;;;;;;0.73;0.73;;;9.50;99.90;;;;;;4995119;28;20231;-78
2022/02/14 00:29:20;;;;;;;0.60;0.50;;;9.60;99.90;;;;;;4994700;28;20207;-79
2022/02/14 00:31:46;;;;;;;1.55;1.08;;;9.60;99.90;;;;;;4994821;28;20212;-79
2022/02/14 00:34:13;;;;;;;0.50;0.40;;;9.50;99.90;;;;;;4995055;28;20206;-78
2022/02/14 00:36:40;;;;;;;1.63;0.70;;;9.60;99.90;;;;;;4995183;28;20207;-78
2022/02/14 00:39:06;;;;;;;0.60;0.43;;;9.60;99.90;;;;;;4994847;28;20204;-78
2022/02/14 00:41:35;;;;;;;0.60;0.60;;;9.60;99.90;;;;;;4994484;28;20759;-77
2022/02/14 00:44:01;;;;;;;0.60;0.57;;;9.60;99.90;;;;;;4994957;28;20204;-78
2022/02/14 00:46:28;;;;;;;2.10;0.60;;;9.50;99.90;;;;;;4994833;28;20222;-78
2022/02/14 00:48:55;;;;;;;0.60;0.40;;;9.40;99.90;;;;;;4994137;28;20732;-78
2022/02/14 00:51:21;;;;;;;0.50;0.40;;;9.50;99.90;;;;;;4994819;28;20563;-78
2022/02/14 00:53:48;;;;;;;1.85;1.13;;;9.40;99.90;;;;;;4994402;28;20677;-78
2022/02/14 00:56:15;;;;;;;1.63;1.23;;;9.40;99.90;;;;;;4994668;28;20200;-78
2022/02/14 00:58:42;;;;;;;2.78;0.88;;;9.40;99.90;;;;;;4994414;28;20196;-79
2022/02/14 01:01:09;;;;;;;0.50;0.50;;;9.40;99.90;;;;;;4994377;28;20267;-78
2022/02/14 01:03:36;;;;;;;1.80;1.48;;;9.40;99.90;;;;;;4993795;28;20274;-76
2022/02/14 01:06:03;;;;;;;5.47;1.77;;;9.30;99.90;;;;;;4994519;28;20221;-78
2022/02/14 01:08:29;;;;;;;1.35;1.25;;;9.30;99.90;;;;;;4994115;28;20747;-78
2022/02/14 01:10:56;;;;;;;0.50;0.40;;;9.30;99.90;;;;;;4993895;28;20212;-78
2022/02/14 01:13:23;;;;;;;1.30;0.85;;;9.40;99.90;;;;;;4994862;28;20559;-78
2022/02/14 01:15:51;;;;;;;0.98;0.82;;;9.30;99.90;;;;;;4994597;28;20539;-79
2022/02/14 01:18:17;;;;;;;1.30;0.93;;;9.30;99.90;;;;;;4994327;28;20626;-77
2022/02/14 01:20:44;;;;;;;0.57;0.45;;;9.30;99.90;;;;;;4993508;28;20771;-78
2022/02/14 01:23:11;;;;;;;5.68;1.52;;;9.30;99.90;;;;;;4994006;28;20208;-79
2022/02/14 01:25:37;;;;;;;1.50;0.82;;;9.40;99.90;;;;;;4993953;28;20200;-78
2022/02/14 01:28:05;;;;;;;0.50;0.40;;;9.30;99.90;;;;;;4994567;28;20206;-78
2022/02/14 01:30:33;;;;;;;1.30;0.93;;;9.30;99.90;;;;;;4993844;28;20219;-78
2022/02/14 01:33:01;;;;;;;0.93;0.90;;;9.30;99.90;;;;;;4994456;28;20198;-79
2022/02/14 01:35:28;;;;;;;1.60;0.85;;;9.30;99.90;;;;;;4994065;28;20200;-79
2022/02/14 01:37:55;;;;;;;0.50;0.40;;;9.30;99.90;;;;;;4994122;28;20219;-77
2022/02/14 01:40:22;;;;;;;0.50;0.40;;;9.30;99.90;;;;;;4992966;28;20235;-77
2022/02/14 01:42:49;;;;;;;0.75;0.50;;;9.30;99.90;;;;;;4996458;28;20216;-80
2022/02/14 01:45:15;;;;;;;4.82;1.48;;;9.30;99.90;;;;;;5003351;28;20235;-80
2022/02/14 01:47:42;;;;;;;0.50;0.40;;;9.30;99.90;;;;;;4999898;28;20196;-77
2022/02/14 01:50:12;;;;;;;1.13;0.90;;;9.20;99.90;;;;;;4993093;28;20661;-77
2022/02/14 01:52:41;;;;;;;0.50;0.40;;;9.20;99.90;;;;;;4993948;28;20222;-78
2022/02/14 01:55:09;;;;;;;1.15;0.80;;;9.20;99.90;;;;;;4993600;28;20196;-77
2022/02/14 01:57:36;;;;;;;22.77;3.05;;;9.20;99.90;;;;;;4993793;28;20196;-77
2022/02/14 02:00:08;;;;;;;8.63;2.05;;;9.20;99.90;;;;;;4993163;28;20204;-76
2022/02/14 02:02:34;;;;;;;3.08;1.23;;;9.20;99.90;;;;;;4993506;28;20641;-77
2022/02/14 02:05:02;;;;;;;0.73;0.73;;;9.20;99.90;;;;;;4993519;28;20598;-77
2022/02/14 02:07:30;;;;;;;0.50;0.40;;;9.20;99.90;;;;;;4995680;28;20291;-77
2022/02/14 02:09:57;;;;;;;2.38;1.08;;;9.20;99.90;;;;;;4995717;28;20218;-77
2022/02/14 02:12:24;;;;;;;0.50;0.40;;;9.20;99.90;;;;;;4993220;28;20196;-77
2022/02/14 02:14:51;;;;;;;0.50;0.50;;;9.20;99.90;;;;;;4993098;28;20258;-78
2022/02/14 02:17:18;;;;;;;1.35;0.82;;;9.10;99.90;;;;;;4993313;28;20220;-77
2022/02/14 02:19:45;;;;;;;0.65;0.65;;;9.10;99.90;;;;;;4992976;28;20194;-77
2022/02/14 02:22:12;;;;;;;0.70;0.60;;;9.20;99.90;;;;;;4993303;28;20294;-77
2022/02/14 02:24:46;;;;;;;0.93;0.93;;;9.10;99.90;;;;;;4993319;28;20195;-75
2022/02/14 02:27:14;;;;;;;2.33;2.22;;;9.20;99.90;;;;;;4992496;28;20184;-76
2022/02/14 02:29:41;;;;;;;0.50;0.50;;;9.20;99.90;;;;;;4992619;28;20668;-77
2022/02/14 02:32:10;;;;;;;2.30;2.20;;;9.10;99.90;;;;;;4993144;28;20547;-77
2022/02/14 02:34:38;;;;;;;0.50;0.50;;;9.10;99.90;;;;;;4993198;28;20276;-77
2022/02/14 02:37:06;;;;;;;0.70;0.70;;;9.10;99.90;;;;;;4993047;28;20191;-77
2022/02/14 02:39:34;;;;;;;4.10;0.80;;;9.10;99.90;;;;;;4992290;28;20288;-77
2022/02/14 02:42:04;;;;;;;0.88;0.88;;;9.10;99.90;;;;;;4992342;28;20250;-76
2022/02/14 02:44:32;;;;;;;0.85;0.85;;;9.20;99.90;;;;;;4993258;28;20598;-77
2022/02/14 02:47:00;;;;;;;0.50;0.40;;;9.20;99.90;;;;;;4992520;28;20216;-78
2022/02/14 02:49:28;;;;;;;1.90;0.65;;;9.20;99.90;;;;;;4992220;28;20741;-78
2022/02/14 02:51:56;;;;;;;0.70;0.70;;;9.30;99.90;;;;;;4992705;28;20884;-75
2022/02/14 02:54:24;;;;;;;1.15;0.88;;;9.30;99.90;;;;;;4993067;28;20196;-78
2022/02/14 02:56:53;;;;;;;0.73;0.70;;;9.30;99.90;;;;;;4992206;28;20269;-77
2022/02/14 02:59:22;;;;;;;1.02;0.65;;;9.40;99.90;;;;;;4992129;28;20203;-78
2022/02/14 03:01:49;;;;;;;0.80;0.60;;;9.30;99.90;;;;;;4992317;28;20586;-78
2022/02/14 03:04:17;;;;;;;0.60;0.60;;;9.30;99.90;;;;;;4992765;28;20235;-78
2022/02/14 03:06:44;;;;;;;0.93;0.93;;;9.30;99.90;;;;;;4992290;28;20203;-78
2022/02/14 03:09:13;;;;;;;0.50;0.50;;;9.40;99.90;;;;;;4992379;28;20291;-78
2022/02/14 03:11:41;;;;;;;2.15;1.50;;;9.30;99.90;;;;;;4992386;28;20270;-78
2022/02/14 03:14:08;;;;;;;0.50;0.50;;;9.30;99.90;;;;;;4992264;28;20187;-79
2022/02/14 03:16:36;;;;;;;1.05;1.05;;;9.40;99.90;;;;;;4992981;28;20199;-78
2022/02/14 03:19:03;;;;;;;1.70;1.17;;;9.40;99.90;;;;;;4991997;28;20192;-78
2022/02/14 03:21:30;;;;;;;0.57;0.57;;;9.40;99.90;;;;;;4992230;28;20214;-78
2022/02/14 03:23:57;;;;;;;0.50;0.40;;;9.30;99.90;;;;;;4992363;28;20216;-77
2022/02/14 03:26:24;;;;;;;6.20;1.30;;;9.30;99.90;;;;;;4992611;28;20200;-78
2022/02/14 03:28:54;;;;;;;1.63;0.82;;;9.30;99.90;;;;;;4995781;28;20203;-78
2022/02/14 03:31:21;;;;;;;3.08;2.97;;;9.30;99.90;;;;;;4996350;28;20223;-78
2022/02/14 03:33:50;;;;;;;0.60;0.50;;;9.30;99.90;;;;;;4995730;28;20239;-78
2022/02/14 03:36:19;;;;;;;1.63;1.52;;;9.30;99.90;;;;;;4996658;28;20594;-78
2022/02/14 03:38:47;;;;;;;0.75;0.70;;;9.30;99.90;;;;;;4995646;28;20204;-78
2022/02/14 03:41:14;;;;;;;0.50;0.50;;;9.30;99.90;;;;;;4996632;28;20719;-78
2022/02/14 03:43:41;;;;;;;0.80;0.80;;;9.30;99.90;;;;;;4995993;28;20229;-79
2022/02/14 03:46:08;;;;;;;2.15;0.95;;;9.40;99.90;;;;;;4996625;28;20597;-78
2022/02/14 03:48:35;;;;;;;1.70;1.40;;;9.40;99.90;;;;;;4996138;28;20245;-78
2022/02/14 03:51:03;;;;;;;1.10;0.90;;;9.40;99.90;;;;;;4995525;28;20862;-78
2022/02/14 03:53:30;;;;;;;1.02;0.70;;;9.30;99.90;;;;;;4995831;28;20189;-79
2022/02/14 03:55:57;;;;;;;1.35;0.93;;;9.40;99.90;;;;;;4995891;28;20196;-78
2022/02/14 03:58:24;;;;;;;1.33;1.30;;;9.50;99.90;;;;;;4995856;28;20283;-78
2022/02/14 04:00:51;;;;;;;1.05;0.93;;;9.60;99.90;;;;;;4995658;28;20222;-77
2022/02/14 04:03:17;;;;;;;0.60;0.50;;;9.60;99.90;;;;;;4995393;28;20219;-78
2022/02/14 04:05:44;;;;;;;0.85;0.70;;;9.60;99.90;;;;;;4996070;28;20238;-79
2022/02/14 04:08:13;;;;;;;2.80;0.65;;;9.60;99.90;;;;;;4995926;28;20207;-78
2022/02/14 04:10:40;;;;;;;0.50;0.40;;;9.60;99.90;;;;;;4995824;28;20279;-78
2022/02/14 04:13:08;;;;;;;1.95;1.85;;;9.70;99.90;;;;;;4995458;28;20614;-79
2022/02/14 04:15:35;;;;;;;0.68;0.68;;;9.70;99.90;;;;;;4995837;28;20196;-78
2022/02/14 04:18:02;;;;;;;1.30;1.00;;;9.60;99.90;;;;;;4995766;28;20294;-78
2022/02/14 04:20:29;;;;;;;0.93;0.52;;;9.60;99.90;;;;;;4995425;28;20306;-77
2022/02/14 04:22:56;;;;;;;1.08;1.08;;;9.60;99.90;;;;;;4994803;28;20207;-79
2022/02/14 04:25:24;;;;;;;0.70;0.52;;;9.60;99.90;;;;;;4995312;28;20194;-78
2022/02/14 04:27:50;;;;;;;1.02;0.90;;;9.60;99.90;;;;;;4995603;28;20197;-77
2022/02/14 04:30:17;;;;;;;5.10;1.33;;;9.60;99.90;;;;;;4994743;28;20211;-76
2022/02/14 04:32:44;;;;;;;0.82;0.60;;;9.60;99.90;;;;;;4995113;28;20716;-78
2022/02/14 04:35:11;;;;;;;1.73;1.00;;;9.60;99.90;;;;;;4995244;28;20203;-78
2022/02/14 04:37:37;;;;;;;0.50;0.40;;;9.60;99.90;;;;;;4994958;28;20551;-78
2022/02/14 04:40:06;;;;;;;0.70;0.50;;;9.60;99.90;;;;;;4993223;28;20594;-77
2022/02/14 04:42:34;;;;;;;3.55;1.50;;;9.60;99.90;;;;;;4995009;28;20784;-77
2022/02/14 04:45:01;;;;;;;0.70;0.60;;;9.60;99.90;;;;;;4994922;28;20195;-75
2022/02/14 04:47:28;;;;;;;0.50;0.43;;;9.60;99.90;;;;;;4994950;28;20287;-78
2022/02/14 04:49:55;;;;;;;0.80;0.50;;;9.60;99.90;;;;;;4993942;28;20201;-77
2022/02/14 04:52:21;;;;;;;0.50;0.40;;;9.60;99.90;;;;;;4994811;28;20291;-78
2022/02/14 04:54:48;;;;;;;1.52;1.42;;;9.60;99.90;;;;;;4994584;28;20664;-77
2022/02/14 04:57:15;;;;;;;1.05;0.93;;;9.60;99.90;;;;;;4994881;28;20586;-78
2022/02/14 04:59:43;;;;;;;0.60;0.40;;;9.60;99.90;;;;;;4994799;28;20602;-77
2022/02/14 05:02:09;;;;;;;1.15;1.05;;;9.60;99.90;;;;;;4994731;28;20276;-78
2022/02/14 05:04:36;;;;;;;0.50;0.40;;;9.50;99.90;;;;;;4994322;28;20744;-77
2022/02/14 05:07:03;;;;;;;0.80;0.80;;;9.50;99.90;;;;;;4994670;28;20609;-75
2022/02/14 05:09:30;;;;;;;1.00;0.60;;;9.50;99.90;;;;;;4994519;28;20195;-77
2022/02/14 05:11:57;;;;;;;0.60;0.40;;;9.50;99.90;;;;;;4994643;28;20281;-75
2022/02/14 05:14:23;;;;;;;0.50;0.40;;;9.60;99.90;;;;;;4993942;28;20196;-75
2022/02/14 05:16:51;;;;;;;1.00;0.68;;;9.60;99.90;;;;;;4994382;28;20226;-77
2022/02/14 05:19:18;;;;;;;1.35;0.93;;;9.60;99.90;;;;;;4994063;28;20199;-76
2022/02/14 05:21:44;;;;;;;0.60;0.60;;;9.60;99.90;;;;;;4994583;28;20222;-77
2022/02/14 05:24:11;;;;;;;1.45;1.35;;;9.60;99.90;;;;;;4993768;28;20219;-77
2022/02/14 05:26:38;;;;;;;6.78;1.50;;;9.60;99.90;;;;;;4994260;28;20205;-77
2022/02/14 05:29:05;;;;;;;0.50;0.40;;;9.60;99.90;;;;;;4993653;28;20263;-77
2022/02/14 05:31:32;;;;;;;6.38;0.90;;;9.60;99.90;;;;;;4993688;28;20225;-77
2022/02/14 05:34:00;;;;;;;3.05;1.33;;;9.60;99.90;;;;;;4993937;28;20683;-74
2022/02/14 05:36:26;;;;;;;0.63;0.63;;;9.60;99.90;;;;;;4994347;28;20203;-75
2022/02/14 05:38:53;;;;;;;1.40;0.60;;;9.60;99.90;;;;;;4993511;28;20208;-78
2022/02/14 05:41:21;;;;;;;2.15;0.95;;;9.60;99.90;;;;;;4993109;28;20226;-78
2022/02/14 05:43:48;;;;;;;1.13;1.02;;;9.60;99.90;;;;;;4993519;28;20227;-78
2022/02/14 05:46:15;;;;;;;0.93;0.43;;;9.70;99.90;;;;;;4994077;28;20207;-78
2022/02/14 05:48:43;;;;;;;0.75;0.60;;;9.60;99.90;;;;;;4993591;28;20219;-78
2022/02/14 05:51:12;;;;;;;0.60;0.50;;;9.60;99.90;;;;;;4993377;28;20215;-78
2022/02/14 05:53:40;;;;;;;0.50;0.40;;;9.60;99.90;;;;;;4993385;28;20202;-78
2022/02/14 05:56:08;;;;;;;0.60;0.60;;;9.60;99.90;;;;;;4993227;28;20683;-79
2022/02/14 05:58:35;;;;;;;0.80;0.60;;;9.60;99.90;;;;;;4992677;28;20203;-78
2022/02/14 06:01:02;;;;;;;0.50;0.40;;;9.60;99.90;;;;;;4993131;28;20244;-78
2022/02/14 06:03:29;;;;;;;0.50;0.50;;;9.60;99.90;;;;;;4993135;28;20303;-78
2022/02/14 06:05:56;;;;;;;2.65;0.88;;;9.60;99.90;;;;;;4993144;28;20563;-78
2022/02/14 06:08:24;;;;;;;0.80;0.80;;;9.50;99.90;;;;;;4993546;28;20201;-80
2022/02/14 06:10:51;;;;;;;5.47;0.90;;;9.50;99.90;;;;;;4993006;28;20216;-79
2022/02/14 06:13:17;;;;;;;0.60;0.50;;;9.50;99.90;;;;;;4996102;28;20196;-78
2022/02/14 06:15:44;;;;;;;0.70;0.70;;;9.50;99.90;;;;;;4994662;28;20298;-78
2022/02/14 06:18:11;;;;;;;0.60;0.55;;;9.50;99.90;;;;;;4993172;28;20210;-80
2022/02/14 06:20:38;;;;;;;0.80;0.60;;;9.50;99.90;;;;;;4993120;28;20224;-78
2022/02/14 06:23:07;;;;;;;2.15;0.88;;;9.40;99.90;;;;;;4993209;28;20210;-77
2022/02/14 06:25:37;;;;;;;0.50;0.40;;;9.40;99.90;;;;;;4992997;28;20202;-78
2022/02/14 06:28:03;;;;;;;0.82;0.77;;;9.40;99.90;;;;;;4993416;28;20202;-77
2022/02/14 06:30:30;;;;;;;2.15;1.95;;;9.40;99.90;;;;;;4991866;28;20230;-77
2022/02/14 06:32:57;;;;;;;1.65;0.50;;;9.30;99.90;;;;;;4992741;28;20189;-75
2022/02/14 06:35:24;;;;;;;0.50;0.50;;;9.40;99.90;;;;;;4993221;28;20278;-77
2022/02/14 06:37:51;;;;;;;1.08;0.68;;;9.40;99.90;;;;;;4992463;28;20203;-78
2022/02/14 06:40:18;;;;;;;0.50;0.40;;;9.40;99.90;;;;;;4992431;28;20226;-78
2022/02/14 06:42:47;;;;;;;0.50;0.40;;;9.40;99.90;;;;;;4993543;28;20210;-79
2022/02/14 06:45:15;;;;;;;0.88;0.55;;;9.50;99.90;;;;;;4993195;28;20301;-79
2022/02/14 06:47:42;;;;;;;0.93;0.60;;;9.50;99.90;;;;;;4993661;28;20255;-79
2022/02/14 06:50:09;;;;;;;0.60;0.60;;;9.50;99.90;;;;;;4993166;28;20716;-79
2022/02/14 06:52:36;;;;;;;0.50;0.40;;;9.60;99.90;;;;;;4995534;28;20227;-79
2022/02/14 06:55:04;;;;;;;0.85;0.70;;;9.60;99.90;;;;;;4992371;28;20231;-76
2022/02/14 06:57:31;;;;;;;0.85;0.85;;;9.60;99.90;;;;;;4992906;28;20260;-76
2022/02/14 07:00:00;;;;;;;0.80;0.80;;;9.50;99.90;;;;;;4991518;28;20275;-79
2022/02/14 07:02:27;;;;;;;0.50;0.40;;;9.60;99.90;;;;;;4991988;28;20199;-78
2022/02/14 07:04:53;;;;;;;0.60;0.50;;;9.60;99.90;;;;;;4992194;28;20330;-78
2022/02/14 07:07:20;;;;;;;0.50;0.47;;;9.60;99.90;;;;;;4991605;28;20199;-76
2022/02/14 07:09:47;;;;;;;0.63;0.63;;;9.60;99.90;;;;;;4992192;28;20221;-77
2022/02/14 07:12:14;;;;;;;0.50;0.40;;;9.60;99.90;;;;;;4992430;28;20215;-78
2022/02/14 07:14:40;;;;;;;0.50;0.40;;;9.70;99.90;;;;;;4992720;28;20578;-78
2022/02/14 07:17:08;;;;;;;0.98;0.55;;;9.70;99.90;;;;;;4992010;28;20199;-78
2022/02/14 07:19:35;;;;;;;0.70;0.50;;;9.70;99.90;;;;;;4991978;28;20637;-79
2022/02/14 07:22:02;;;;;;;2.35;0.80;;;9.80;99.90;;;;;;4992433;28;20215;-79
2022/02/14 07:24:29;;;;;;;0.60;0.50;;;9.80;99.90;;;;;;4993165;28;20578;-77
2022/02/14 07:26:56;;;;;;;0.63;0.63;;;9.80;99.90;;;;;;4994328;28;20212;-79
2022/02/14 07:29:22;;;;;;;0.70;0.70;;;9.80;99.90;;;;;;4992126;28;20239;-77
2022/02/14 07:31:49;;;;;;;0.60;0.52;;;9.90;99.90;;;;;;4991485;28;20551;-78
2022/02/14 07:34:17;;;;;;;0.77;0.77;;;9.90;99.90;;;;;;4992209;28;20201;-79
2022/02/14 07:36:44;;;;;;;0.55;0.50;;;10.00;99.90;;;;;;4991626;28;20194;-78
2022/02/14 07:39:12;;;;;;;0.63;0.60;;;10.00;99.90;;;;;;4991804;28;20647;-78
2022/02/14 07:41:39;;;;;;;0.70;0.70;;;9.90;99.90;;;;;;4992000;28;20261;-78
2022/02/14 07:44:06;;;;;;;0.60;0.55;;;10.00;99.90;;;;;;4991433;28;20219;-78
2022/02/14 07:46:33;;;;;;;0.90;0.82;;;10.00;99.90;;;;;;4992109;28;20210;-79
2022/02/14 07:49:00;;;;;;;0.90;0.40;;;10.00;99.90;;;;;;4991573;28;20203;-77
2022/02/14 07:51:28;;;;;;;0.93;0.93;;;10.00;99.90;;;;;;4992301;28;20234;-78
2022/02/14 07:53:55;;;;;;;0.50;0.40;;;10.00;99.90;;;;;;4992290;28;20212;-77
2022/02/14 07:56:22;;;;;;;0.50;0.40;;;10.00;99.90;;;;;;4991942;28;20202;-78
2022/02/14 07:58:50;;;;;;;0.60;0.50;;;10.10;99.90;;;;;;4991483;28;20223;-76
2022/02/14 08:01:17;;;;;;;1.95;1.02;;;10.10;99.90;;;;;;4991626;28;20211;-78
2022/02/14 08:03:44;;;;;;;1.85;0.95;;;10.10;99.90;;;;;;4991316;28;20208;-78
2022/02/14 08:06:11;;;;;;;0.50;0.40;;;10.10;99.90;;;;;;4991760;28;20198;-78
2022/02/14 08:08:39;;;;;;;0.50;0.40;;;10.10;99.90;;;;;;4991559;28;20213;-78
2022/02/14 08:11:06;;;;;;;0.80;0.80;;;10.10;99.90;;;;;;4991347;28;20552;-79
2022/02/14 08:13:33;;;;;;;0.60;0.50;;;10.20;99.90;;;;;;4993251;28;20232;-78
2022/02/14 08:16:00;;;;;;;0.98;0.98;;;10.20;99.90;;;;;;4995218;28;20207;-78
2022/02/14 08:18:27;;;;;;;0.82;0.50;;;10.20;99.90;;;;;;4995473;28;20197;-81
2022/02/14 08:20:53;;;;;;;0.50;0.50;;;10.20;99.90;;;;;;4994984;28;20237;-79
2022/02/14 08:23:20;;;;;;;0.50;0.40;;;10.20;99.90;;;;;;4995533;28;20203;-78
2022/02/14 08:25:48;;;;;;;3.45;1.33;;;10.20;99.90;;;;;;4994855;28;20228;-79
2022/02/14 08:28:17;;;;;;;1.30;0.60;;;10.30;99.90;;;;;;4995192;28;20377;-79
2022/02/14 08:30:43;;;;;;;0.90;0.52;;;10.30;99.90;;;;;;4995206;28;20216;-78
2022/02/14 08:33:12;;;;;;;2.08;1.73;;;10.30;99.90;;;;;;4994803;28;20207;-79
2022/02/14 08:35:39;;;;;;;0.50;0.40;;;10.40;99.90;;;;;;4994989;28;20291;-79
2022/02/14 08:38:06;;;;;;;0.50;0.50;;;10.40;99.90;;;;;;4994895;28;20207;-76
2022/02/14 08:40:34;;;;;;;5.75;3.78;;;10.40;99.90;;;;;;4994102;28;20293;-79
2022/02/14 08:43:03;;;;;;;8.52;1.58;;;10.50;99.90;;;;;;4994775;28;20280;-78
2022/02/14 08:45:31;;;;;;;1.02;0.93;;;10.50;99.90;;;;;;4994440;28;20218;-79
2022/02/14 08:47:58;;;;;;;0.50;0.40;;;10.40;99.90;;;;;;4994420;28;20684;-78
2022/02/14 08:50:25;;;;;;;0.80;0.60;;;10.40;99.90;;;;;;4994826;28;20224;-79
2022/02/14 08:52:52;;;;;;;3.53;0.80;;;10.40;99.90;;;;;;4994340;28;20207;-79
2022/02/14 08:55:19;;;;;;;2.10;0.65;;;10.40;99.90;;;;;;4994617;28;20544;-78
2022/02/14 08:57:46;;;;;;;0.60;0.50;;;10.40;99.90;;;;;;4994538;28;20200;-79
2022/02/14 09:00:16;;;;;;;0.50;0.40;;;10.40;99.90;;;;;;4994190;28;20215;-78
2022/02/14 09:02:43;;;;;;;0.50;0.40;;;10.40;99.90;;;;;;4994375;28;20207;-79
2022/02/14 09:05:10;;;;;;;0.50;0.40;;;10.50;99.90;;;;;;4994083;28;20466;-79
2022/02/14 09:07:37;;;;;;;0.57;0.50;;;10.50;99.90;;;;;;4994547;28;20671;-78
2022/02/14 09:10:04;;;;;;;0.60;0.40;;;10.60;99.90;;;;;;4993931;28;20203;-79
2022/02/14 09:12:31;;;;;;;0.60;0.60;;;10.70;99.90;;;;;;4993570;28;20207;-76
2022/02/14 09:14:58;;;;;;;0.60;0.50;;;10.80;99.90;;;;;;4994474;28;20199;-78
2022/02/14 09:17:27;;;;;;;0.50;0.40;;;10.70;99.90;;;;;;4994511;28;20582;-78
2022/02/14 09:19:54;;;;;;;1.35;1.13;;;10.80;99.90;;;;;;4993961;28;20677;-79
2022/02/14 09:22:21;;;;;;;0.98;0.75;;;10.90;99.90;;;;;;4994444;28;20208;-78
2022/02/14 09:24:48;;;;;;;0.60;0.40;;;10.90;99.90;;;;;;4992818;28;20222;-79
2022/02/14 09:27:14;;;;;;;0.60;0.60;;;11.00;99.90;;;;;;4994014;28;20562;-79
2022/02/14 09:29:41;;;;;;;0.50;0.40;;;11.00;99.90;;;;;;4993958;28;20370;-78
2022/02/14 09:32:08;;;;;;;0.77;0.73;;;11.00;99.90;;;;;;4994302;28;20223;-78
2022/02/14 09:34:36;;;;;;;0.50;0.40;;;11.10;99.90;;;;;;4994322;28;20198;-77
2022/02/14 09:37:04;;;;;;;0.60;0.57;;;11.20;99.90;;;;;;4993766;28;20220;-78
2022/02/14 09:39:31;;;;;;;0.50;0.40;;;11.40;99.90;;;;;;4993197;28;20211;-79
2022/02/14 09:42:00;;;;;;;0.85;0.85;;;11.40;99.90;;;;;;4993307;28;20621;-77
2022/02/14 09:46:56;;;;;;;1.23;1.10;;;11.40;99.90;;;;;;4990889;28;20204;-80
2022/02/14 09:49:24;;;;;;;0.88;0.70;;;11.50;99.90;;;;;;4997012;28;20458;-80
2022/02/14 09:51:54;;;;;;;1.55;0.82;;;11.50;99.90;;;;;;4997260;28;20189;-79
2022/02/14 09:54:21;;;;;;;0.50;0.40;;;11.50;99.90;;;;;;4996720;28;20578;-79
2022/02/14 09:56:48;;;;;;;0.60;0.50;;;11.50;99.90;;;;;;4997085;28;20221;-80
2022/02/14 09:59:15;;;;;;;0.60;0.50;;;11.50;99.90;;;;;;4996340;28;20199;-80
2022/02/14 10:01:42;;;;;;;0.50;0.40;;;11.40;99.90;;;;;;4996688;28;20243;-79
2022/02/14 10:04:09;;;;;;;0.80;0.50;;;11.30;99.90;;;;;;4996601;28;20211;-79
2022/02/14 10:06:39;;;;;;;1.13;0.60;;;11.30;99.90;;;;;;4996762;28;20221;-79
2022/02/14 10:09:09;;;;;;;0.68;0.68;;;11.20;99.90;;;;;;4996148;28;20630;-78
2022/02/14 10:11:42;;;;;;;1.27;1.13;;;11.20;99.90;;;;;;4995774;28;20206;-79
2022/02/14 10:14:16;;;;;;;0.60;0.50;;;11.20;99.90;;;;;;4995780;28;20698;-78
2022/02/14 10:16:59;;;;;;;0.70;0.60;;;11.30;99.90;;;;;;4995970;28;20661;-79
2022/02/14 10:19:26;;;;;;;0.50;0.40;;;11.30;99.90;;;;;;4996742;28;20207;-79
2022/02/14 10:21:54;;;;;;;0.60;0.50;;;11.20;99.90;;;;;;4996878;28;20274;-79
2022/02/14 10:24:22;;;;;;;0.80;0.60;;;11.30;99.90;;;;;;4996963;28;20212;-79
2022/02/14 10:26:51;;;;;;;1.02;0.50;;;11.30;99.90;;;;;;4997285;28;20622;-79
2022/02/14 10:29:24;;;;;;;0.50;0.40;;;11.40;99.90;;;;;;4999427;28;20663;-79
2022/02/14 10:31:53;;;;;;;0.68;0.50;;;11.30;99.90;;;;;;4999596;28;20247;-79
2022/02/14 10:34:22;;;;;;;1.77;0.63;;;11.20;99.90;;;;;;4997162;28;20203;-80
2022/02/14 10:36:50;;;;;;;0.60;0.52;;;11.20;99.90;;;;;;5000843;28;20229;-79
2022/02/14 10:39:20;;;;;;;0.90;0.90;;;11.20;99.90;;;;;;4996476;28;20578;-79
2022/02/14 10:41:50;;;;;;;0.60;0.60;;;11.20;99.90;;;;;;4996277;28;20486;-79
2022/02/14 10:45:07;;;;;;;0.77;0.70;;;11.20;99.90;;;;;;4996427;28;20606;-79
2022/02/14 10:47:11;;;;;;;15.07;1.58;;;11.10;99.90;;;;;;4995620;28;20199;-79
2022/02/14 10:49:38;;;;;;;0.50;0.50;;;10.90;99.90;;;;;;4996118;28;20203;-79
2022/02/14 10:52:09;;;;;;;15.20;0.90;;;10.90;99.90;;;;;;4996436;28;20197;-79
2022/02/14 10:54:42;;;;;;;0.50;0.40;;;11.10;99.90;;;;;;4996754;28;20184;-79
2022/02/14 10:57:27;;;;;;;0.60;0.50;;;11.10;99.90;;;;;;4996829;28;20210;-79
2022/02/14 10:59:58;;;;;;;0.60;0.40;;;11.20;99.90;;;;;;4995588;28;20185;-79
2022/02/14 11:02:24;;;;;;;0.50;0.50;;;11.30;99.90;;;;;;4995692;28;20206;-78
2022/02/14 11:04:51;;;;;;;0.60;0.50;;;11.20;99.90;;;;;;4996980;28;20224;-78
2022/02/14 11:07:19;;;;;;;0.60;0.60;;;11.20;99.90;;;;;;4996369;28;20197;-78
2022/02/14 11:09:49;;;;;;;0.60;0.50;;;11.40;99.90;;;;;;4995666;28;20214;-78
2022/02/14 11:12:19;;;;;;;0.50;0.40;;;11.70;99.90;;;;;;4995591;28;20199;-78
2022/02/14 11:14:50;;;;;;;1.25;0.80;;;11.70;99.90;;;;;;4995205;28;20223;-78
2022/02/14 11:17:19;;;;;;;0.85;0.55;;;11.60;99.90;;;;;;4994854;28;20282;-79
2022/02/14 11:19:48;;;;;;;0.77;0.65;;;11.40;99.90;;;;;;4995181;28;20200;-79
2022/02/14 11:22:16;;;;;;;0.90;0.90;;;11.20;99.90;;;;;;4995087;28;20201;-78
2022/02/14 11:24:48;;;;;;;0.63;0.60;;;11.00;99.90;;;;;;4994053;28;20204;-78
2022/02/14 11:27:22;;;;;;;0.80;0.55;;;11.00;99.90;;;;;;4996113;28;20250;-77
2022/02/14 11:29:53;;;;;;;1.83;1.53;;;11.10;99.90;;;;;;4994808;28;20676;-78
2022/02/14 11:32:22;;;;;;;0.50;0.40;;;11.30;99.90;;;;;;4995211;28;20906;-79
2022/02/14 11:34:53;;;;;;;0.50;0.40;;;11.40;99.90;;;;;;4994135;28;20579;-79
2022/02/14 11:37:20;;;;;;;0.70;0.60;;;11.50;99.90;;;;;;4995325;28;20259;-79
2022/02/14 11:39:47;;;;;;;1.00;0.73;;;11.50;99.90;;;;;;4995259;28;20539;-79
2022/02/14 11:42:14;;;;;;;0.93;0.50;;;11.30;99.90;;;;;;4995427;28;20203;-78
2022/02/14 11:44:42;;;;;;;0.50;0.40;;;11.20;99.90;;;;;;4995204;28;20211;-79
2022/02/14 11:47:16;;;;;;;0.80;0.75;;;11.40;99.90;;;;;;4995735;28;20184;-79
2022/02/14 11:49:45;;;;;;;0.50;0.40;;;11.60;99.90;;;;;;4999375;28;20184;-79
2022/02/14 11:52:30;;;;;;;0.50;0.40;;;11.70;99.90;;;;;;5001325;28;20211;-79
2022/02/14 11:55:02;;;;;;;3.60;0.70;;;11.60;99.90;;;;;;4999529;28;20220;-78
2022/02/14 11:57:31;;;;;;;0.70;0.50;;;11.60;99.90;;;;;;4999532;28;20482;-77
2022/02/14 12:00:29;;;;;;;0.50;0.50;;;11.60;99.90;;;;;;4998606;28;20193;-79
2022/02/14 12:03:13;;;;;;;0.50;0.40;;;11.40;99.90;;;;;;4938875;29;20179;-79
2022/02/14 12:05:50;;;;;;;0.50;0.40;;;11.20;99.90;;;;;;4991293;28;20611;-79
2022/02/14 12:08:18;;;;;;;0.50;0.40;;;11.20;99.90;;;;;;4998791;28;20250;-79
2022/02/14 12:10:47;;;;;;;0.60;0.60;;;11.20;99.90;;;;;;4998490;28;20562;-79
2022/02/14 12:13:24;;;;;;;0.50;0.40;;;11.20;99.90;;;;;;4999552;28;20204;-77
2022/02/14 12:21:48;;;;;;;0.80;0.70;;;10.90;99.90;;;;;;4998910;28;20211;-78
2022/02/14 12:24:19;;;;;;;0.60;0.40;;;10.80;99.90;;;;;;4998605;28;20272;-79
2022/02/14 12:27:00;;;;;;;1.10;0.90;;;10.80;99.90;;;;;;4997586;28;20720;-79
2022/02/14 12:29:33;;;;;;;0.60;0.50;;;10.70;99.90;;;;;;4999051;28;20233;-77
2022/02/14 12:32:01;;;;;;;0.70;0.60;;;10.60;99.90;;;;;;4996907;28;20258;-78
2022/02/14 12:34:30;;;;;;;0.82;0.60;;;10.60;99.90;;;;;;4996900;28;20682;-78
2022/02/14 12:37:00;;;;;;;0.50;0.40;;;10.50;99.90;;;;;;4999929;28;20200;-78
2022/02/14 12:39:31;;;;;;;0.50;0.40;;;10.50;99.90;;;;;;4996452;28;20231;-78
2022/02/14 12:41:59;;;;;;;3.55;1.77;;;10.50;99.90;;;;;;4996771;28;20496;-79
2022/02/14 12:44:30;;;;;;;0.70;0.70;;;10.50;99.90;;;;;;4996581;28;20251;-78
2022/02/14 12:46:57;;;;;;;0.65;0.50;;;10.40;99.90;;;;;;5001647;28;20211;-78
2022/02/14 12:49:26;;;;;;;1.17;0.60;;;10.40;99.90;;;;;;4996335;28;20203;-78
2022/02/14 12:51:52;;;;;;;0.70;0.50;;;10.40;99.90;;;;;;4996525;28;20214;-78
2022/02/14 12:54:19;;;;;;;0.77;0.77;;;10.30;99.90;;;;;;4996852;28;20443;-78
2022/02/14 12:56:47;;;;;;;0.60;0.50;;;10.30;99.90;;;;;;4996742;28;20227;-78
2022/02/14 12:59:14;;;;;;;0.60;0.50;;;10.30;99.90;;;;;;4995339;28;20536;-78
2022/02/14 13:01:42;;;;;;;0.50;0.40;;;10.30;99.90;;;;;;4996182;28;20201;-78
2022/02/14 13:04:11;;;;;;;0.82;0.60;;;10.20;99.90;;;;;;4996781;28;20194;-78
2022/02/14 13:06:41;;;;;;;0.63;0.40;;;10.20;99.90;;;;;;4995858;28;20247;-78